Time;durP1;ratioP1;P1;durP2;ratioP2;P2;SDS_P1;SDS_P2;PMS_P1;PMS_P2;Temp;Humidity;BMP_temperature;BMP_pressure;BME280_temperature;BME280_humidity;BME280_pressure;Samples;Min_cycle;Max_cycle;Signal;HPM_P1;HPM_P2
2022/12/20 00:02:02;;;;;;;11.45;3.85;;;;;;;16.06;58.41;101346.88;5011399;28;20041;-73
2022/12/20 00:04:27;;;;;;;7.35;3.72;;;;;;;15.85;59.12;101361.19;5012585;28;20064;-74
2022/12/20 00:06:53;;;;;;;5.60;3.92;;;;;;;15.48;59.88;101360.03;5010840;28;20045;-73
2022/12/20 00:09:18;;;;;;;6.35;3.08;;;;;;;16.03;58.80;101350.09;5013257;28;20033;-74
2022/12/20 00:11:44;;;;;;;9.82;4.88;;;;;;;15.37;60.56;101353.56;5012390;28;20038;-74
2022/12/20 00:14:09;;;;;;;7.43;4.00;;;;;;;16.11;58.20;101346.13;5013587;28;20033;-74
2022/12/20 00:16:36;;;;;;;7.05;4.45;;;;;;;15.77;59.07;101353.47;5013283;28;20038;-74
2022/12/20 00:19:04;;;;;;;10.75;3.83;;;;;;;15.24;60.27;101347.63;5010825;28;20034;-72
2022/12/20 00:21:30;;;;;;;6.45;4.25;;;;;;;15.32;60.48;101337.25;4994002;28;20074;-73
2022/12/20 00:23:57;;;;;;;6.68;3.75;;;;;;;15.94;58.71;101329.06;5012500;28;20038;-72
2022/12/20 00:26:24;;;;;;;7.70;3.47;;;;;;;15.73;59.52;101330.63;5013964;28;20478;-74
2022/12/20 00:28:50;;;;;;;6.75;3.30;;;;;;;15.45;59.51;101320.69;5014351;28;20034;-73
2022/12/20 00:31:18;;;;;;;7.68;3.78;;;;;;;15.80;58.74;101315.84;5013864;28;20038;-73
2022/12/20 00:33:45;;;;;;;5.68;3.53;;;;;;;15.58;59.11;101311.44;5013626;28;20056;-73
2022/12/20 00:36:11;;;;;;;7.10;3.80;;;;;;;15.47;59.73;101309.63;5015329;28;20454;-73
2022/12/20 00:38:37;;;;;;;11.60;3.70;;;;;;;15.38;60.17;101303.78;5033325;28;20073;-74
2022/12/20 00:41:05;;;;;;;5.47;3.75;;;;;;;15.42;59.96;101313.09;5022146;28;20044;-72
2022/12/20 00:43:32;;;;;;;10.23;4.13;;;;;;;16.24;57.68;101307.81;5013160;28;20038;-73
2022/12/20 00:45:58;;;;;;;10.30;3.80;;;;;;;16.17;57.55;101320.72;5013375;28;20049;-74
2022/12/20 00:48:23;;;;;;;6.28;3.58;;;;;;;16.11;57.61;101319.03;5012442;28;20141;-74
2022/12/20 00:50:49;;;;;;;6.50;3.60;;;;;;;15.84;58.89;101322.41;5013621;28;20053;-73
2022/12/20 00:53:15;;;;;;;7.32;3.45;;;;;;;15.10;61.11;101321.94;5013790;28;20494;-74
2022/12/20 00:55:45;;;;;;;6.38;3.40;;;;;;;16.10;58.30;101315.47;5013669;28;20057;-73
2022/12/20 00:58:11;;;;;;;5.73;3.30;;;;;;;16.21;57.53;101305.59;5012106;28;20068;-73
2022/12/20 01:00:38;;;;;;;6.60;3.63;;;;;;;16.60;56.48;101304.50;5012623;28;20050;-73
2022/12/20 01:03:03;;;;;;;4.47;3.58;;;;;;;16.12;57.76;101304.38;5012481;28;20577;-73
2022/12/20 01:05:29;;;;;;;4.80;3.33;;;;;;;16.41;56.49;101306.66;5012737;28;20069;-73
2022/12/20 01:07:54;;;;;;;4.65;3.40;;;;;;;15.99;58.19;101297.44;5014257;28;20034;-74
2022/12/20 01:10:20;;;;;;;6.45;3.45;;;;;;;15.93;57.77;101298.44;5012997;28;20038;-74
2022/12/20 01:12:45;;;;;;;6.90;3.38;;;;;;;16.04;58.51;101310.25;5012830;28;20092;-72
2022/12/20 01:15:11;;;;;;;6.18;3.35;;;;;;;15.89;58.21;101305.41;5012329;28;20030;-76
2022/12/20 01:17:36;;;;;;;5.35;3.33;;;;;;;15.38;60.77;101300.22;5012752;28;20117;-74
2022/12/20 01:20:02;;;;;;;10.05;3.28;;;;;;;15.89;58.28;101291.88;5013102;28;20033;-74
2022/12/20 01:22:27;;;;;;;4.55;3.05;;;;;;;16.12;58.03;101288.09;5012677;28;20085;-74
2022/12/20 01:24:53;;;;;;;7.93;3.10;;;;;;;16.10;58.78;101298.38;5012265;28;20030;-73
2022/12/20 01:27:18;;;;;;;8.98;3.25;;;;;;;16.17;57.80;101296.31;5012716;28;20117;-74
2022/12/20 01:29:44;;;;;;;6.90;2.97;;;;;;;16.28;57.67;101285.34;5012027;28;20038;-74
2022/12/20 01:32:09;;;;;;;7.05;2.85;;;;;;;16.68;56.99;101291.31;5013017;28;20030;-74
2022/12/20 01:34:34;;;;;;;4.63;2.80;;;;;;;16.69;56.77;101297.53;5012721;28;20382;-74
2022/12/20 01:37:00;;;;;;;7.97;3.10;;;;;;;15.44;60.17;101289.28;5012290;28;20041;-73
2022/12/20 01:39:25;;;;;;;7.57;3.10;;;;;;;16.39;57.19;101284.41;5012561;28;20467;-74
2022/12/20 01:41:50;;;;;;;10.20;2.60;;;;;;;16.29;57.57;101283.47;5012300;28;20077;-73
2022/12/20 01:44:16;;;;;;;8.95;2.63;;;;;;;16.09;58.58;101264.22;5012690;28;20026;-73
2022/12/20 01:46:42;;;;;;;4.07;2.55;;;;;;;16.60;57.12;101271.94;5012609;28;20125;-73
2022/12/20 01:49:16;;;;;;;3.53;2.63;;;;;;;16.81;56.21;101265.66;5012059;28;20427;-73
2022/12/20 01:52:14;;;;;;;4.85;2.53;;;;;;;17.06;56.41;101270.53;5012846;28;20564;-74
2022/12/20 01:54:48;;;;;;;5.88;2.53;;;;;;;17.41;55.27;101276.28;5011705;28;20121;-73
2022/12/20 01:57:17;;;;;;;5.93;2.15;;;;;;;16.56;57.66;101279.78;5012402;28;20075;-74
2022/12/20 01:59:45;;;;;;;3.92;2.15;;;;;;;16.74;57.22;101280.50;5016320;28;20052;-74
2022/12/20 02:02:12;;;;;;;3.30;2.22;;;;;;;16.52;58.36;101283.25;5016750;28;20048;-72
2022/12/20 02:04:38;;;;;;;6.15;3.15;;;;;;;16.70;57.43;101288.34;5016858;28;20129;-73
2022/12/20 02:07:06;;;;;;;7.25;2.88;;;;;;;16.45;58.82;101274.47;5016533;28;20103;-74
2022/12/20 02:09:34;;;;;;;3.88;2.38;;;;;;;16.38;59.54;101274.63;5016696;28;20550;-75
2022/12/20 02:12:09;;;;;;;3.10;1.83;;;;;;;16.32;59.84;101278.38;5016398;28;20103;-75
2022/12/20 02:14:53;;;;;;;6.70;2.67;;;;;;;16.53;59.56;101276.72;5016491;28;20038;-75
2022/12/20 02:17:37;;;;;;;5.78;2.47;;;;;;;16.27;60.42;101270.19;5016588;28;20084;-76
2022/12/20 02:20:35;;;;;;;7.80;2.97;;;;;;;16.43;61.16;101271.19;5017415;28;20016;-75
2022/12/20 02:23:18;;;;;;;3.83;2.60;;;;;;;15.57;62.96;101263.72;5016111;28;20071;-76
2022/12/20 02:26:02;;;;;;;3.25;2.35;;;;;;;16.28;61.94;101273.69;5016927;28;20074;-75
2022/12/20 02:28:46;;;;;;;4.47;2.60;;;;;;;16.10;63.39;101274.81;5015857;28;20042;-76
2022/12/20 02:31:16;;;;;;;3.42;3.03;;;;;;;16.01;63.51;101272.78;5016568;28;20045;-76
2022/12/20 02:33:46;;;;;;;8.80;3.77;;;;;;;16.28;62.47;101270.97;5016696;28;20494;-75
2022/12/20 02:36:14;;;;;;;4.93;3.10;;;;;;;16.09;64.27;101269.66;5016179;28;20038;-75
2022/12/20 02:38:39;;;;;;;4.70;3.33;;;;;;;15.99;64.45;101264.09;5016351;28;20042;-75
2022/12/20 02:41:14;;;;;;;6.82;3.30;;;;;;;15.86;65.17;101265.28;5016125;28;20044;-76
2022/12/20 02:46:27;;;;;;;6.32;3.40;;;;;;;15.89;65.14;101239.53;5015772;28;20405;-76
2022/12/20 02:48:57;;;;;;;9.23;3.53;;;;;;;15.83;65.37;101233.25;5015402;28;20034;-76
2022/12/20 02:51:25;;;;;;;3.70;3.33;;;;;;;16.34;64.15;101235.53;5015735;28;20533;-75
2022/12/20 02:53:50;;;;;;;10.32;4.35;;;;;;;16.02;64.29;101231.88;5016257;28;20033;-76
2022/12/20 02:56:21;;;;;;;7.43;3.80;;;;;;;15.78;64.62;101217.72;5015774;28;20497;-74
2022/12/20 02:58:54;;;;;;;5.10;3.47;;;;;;;16.47;63.38;101218.84;5016345;28;20045;-75
2022/12/20 03:01:29;;;;;;;6.22;3.63;;;;;;;16.60;61.96;101223.09;5015406;28;20053;-75
2022/12/20 03:03:57;;;;;;;6.32;3.38;;;;;;;16.14;63.98;101220.88;5015692;28;20061;-76
2022/12/20 03:06:23;;;;;;;7.75;3.53;;;;;;;16.29;63.40;101215.66;5015571;28;20379;-75
2022/12/20 03:08:48;;;;;;;5.93;3.75;;;;;;;16.52;62.66;101213.53;5015602;28;20067;-74
2022/12/20 03:11:14;;;;;;;5.82;3.55;;;;;;;16.70;61.96;101209.63;5014548;28;20036;-75
2022/12/20 03:13:39;;;;;;;5.05;3.60;;;;;;;16.50;61.90;101218.41;5015757;28;20048;-77
2022/12/20 03:16:05;;;;;;;7.32;3.92;;;;;;;16.23;63.79;101222.09;5015018;28;20058;-76
2022/12/20 03:18:30;;;;;;;9.27;3.92;;;;;;;16.41;63.17;101238.06;5014666;28;20406;-76
2022/12/20 03:20:56;;;;;;;6.43;4.13;;;;;;;16.13;63.91;101244.50;5014213;28;20029;-75
2022/12/20 03:23:21;;;;;;;9.52;4.05;;;;;;;16.26;63.57;101232.44;5014437;28;20398;-75
2022/12/20 03:25:46;;;;;;;6.20;4.20;;;;;;;16.16;63.13;101230.41;5014743;28;20405;-74
2022/12/20 03:28:12;;;;;;;7.70;4.05;;;;;;;15.30;67.24;101225.66;5014783;28;20080;-75
2022/12/20 03:30:37;;;;;;;7.80;4.15;;;;;;;16.15;64.23;101220.66;5014331;28;20042;-74
2022/12/20 03:33:03;;;;;;;6.50;4.47;;;;;;;16.04;64.26;101224.31;5014517;28;20038;-75
2022/12/20 03:35:28;;;;;;;6.38;3.80;;;;;;;16.49;62.84;101221.38;5013947;28;20053;-74
2022/12/20 03:37:55;;;;;;;6.85;4.25;;;;;;;16.26;63.72;101216.16;5014422;28;20399;-75
2022/12/20 03:40:20;;;;;;;5.80;3.97;;;;;;;15.67;66.03;101221.38;5007627;28;20040;-75
2022/12/20 03:42:46;;;;;;;7.95;3.83;;;;;;;16.28;63.82;101225.69;4994871;28;20038;-75
2022/12/20 03:45:11;;;;;;;5.97;4.45;;;;;;;15.71;65.35;101233.34;5009284;28;20067;-75
2022/12/20 03:47:37;;;;;;;9.95;4.15;;;;;;;15.08;68.44;101242.84;4994638;28;20118;-75
2022/12/20 03:50:04;;;;;;;6.05;4.40;;;;;;;15.41;67.19;101240.97;4994599;28;20035;-75
2022/12/20 03:52:29;;;;;;;10.32;4.45;;;;;;;15.93;65.37;101227.13;4994613;28;20045;-73
2022/12/20 03:54:55;;;;;;;6.80;4.63;;;;;;;16.29;64.37;101237.38;4993638;28;20030;-76
2022/12/20 03:57:20;;;;;;;6.03;4.47;;;;;;;16.32;63.91;101229.53;4992456;28;20070;-75
2022/12/20 03:59:45;;;;;;;7.68;4.72;;;;;;;16.12;64.05;101225.75;4994051;28;20062;-75
2022/12/20 04:02:11;;;;;;;10.50;5.13;;;;;;;16.25;64.00;101215.38;4997963;28;20394;-76
2022/12/20 04:04:36;;;;;;;9.43;5.40;;;;;;;15.73;65.30;101222.25;5014324;28;20033;-75
2022/12/20 04:07:02;;;;;;;8.60;5.30;;;;;;;15.74;65.45;101205.75;5013730;28;20045;-74
2022/12/20 04:09:28;;;;;;;9.10;5.05;;;;;;;16.16;65.08;101205.19;5013614;28;20030;-75
2022/12/20 04:11:53;;;;;;;13.10;5.00;;;;;;;16.64;63.06;101219.63;5013476;28;20057;-76
2022/12/20 04:14:18;;;;;;;10.38;5.00;;;;;;;15.73;65.53;101212.25;5012067;28;20120;-75
2022/12/20 04:16:44;;;;;;;7.90;5.28;;;;;;;15.60;65.78;101204.47;5012942;28;20072;-74
2022/12/20 04:19:10;;;;;;;6.38;5.10;;;;;;;15.86;65.16;101199.41;5012035;28;20064;-75
2022/12/20 04:21:36;;;;;;;8.82;4.85;;;;;;;16.01;64.64;101203.13;4993784;28;20029;-74
2022/12/20 04:24:02;;;;;;;9.38;4.50;;;;;;;16.09;64.36;101204.56;5012700;28;20142;-75
2022/12/20 04:26:29;;;;;;;7.55;5.25;;;;;;;15.73;65.57;101206.00;5013295;28;20121;-74
2022/12/20 04:28:54;;;;;;;7.93;4.85;;;;;;;15.89;65.12;101193.47;5013294;28;20071;-73
2022/12/20 04:31:19;;;;;;;8.00;4.70;;;;;;;15.74;65.66;101203.03;5010939;28;20050;-74
2022/12/20 04:33:45;;;;;;;10.05;5.28;;;;;;;16.06;64.26;101196.97;5012492;28;20030;-75
2022/12/20 04:36:11;;;;;;;5.53;4.57;;;;;;;16.39;63.36;101191.38;5012478;28;20402;-73
2022/12/20 04:38:36;;;;;;;6.00;5.05;;;;;;;16.01;65.26;101200.41;5012645;28;20038;-74
2022/12/20 04:41:02;;;;;;;7.22;4.35;;;;;;;16.10;63.83;101201.59;5013270;28;20125;-76
2022/12/20 04:43:27;;;;;;;4.47;4.07;;;;;;;15.82;65.06;101185.53;5012973;28;20045;-75
2022/12/20 04:45:57;;;;;;;11.15;4.20;;;;;;;16.19;64.47;101183.00;5012454;28;20070;-75
2022/12/20 04:48:27;;;;;;;6.90;4.10;;;;;;;16.40;62.92;101191.13;4994722;28;20096;-74
2022/12/20 04:50:54;;;;;;;8.77;4.40;;;;;;;16.14;63.90;101178.34;5012439;28;20048;-73
2022/12/20 04:56:05;;;;;;;9.00;5.10;;;;;;;16.18;64.12;101168.63;5013501;28;20073;-75
2022/12/20 04:58:30;;;;;;;6.65;4.57;;;;;;;16.49;63.04;101169.81;4990126;28;20031;-75
2022/12/20 05:00:56;;;;;;;10.10;4.70;;;;;;;16.49;63.28;101176.03;4991104;28;20042;-74
2022/12/20 05:03:23;;;;;;;8.13;4.18;;;;;;;16.56;62.25;101167.72;5011198;28;20549;-74
2022/12/20 05:05:48;;;;;;;7.30;3.97;;;;;;;16.36;62.91;101171.00;5011314;28;20038;-75
2022/12/20 05:08:14;;;;;;;8.27;4.72;;;;;;;16.15;63.55;101180.00;5011827;28;20121;-74
2022/12/20 05:10:40;;;;;;;12.50;4.35;;;;;;;16.38;63.08;101171.56;5012557;28;20026;-75
2022/12/20 05:13:05;;;;;;;7.30;4.30;;;;;;;16.24;63.59;101174.91;4994383;28;20454;-74
2022/12/20 05:15:31;;;;;;;8.18;4.22;;;;;;;16.13;64.49;101168.56;5011949;28;20060;-74
2022/12/20 05:17:58;;;;;;;5.53;3.65;;;;;;;16.12;64.20;101160.69;4994405;28;20053;-72
2022/12/20 05:20:28;;;;;;;4.95;3.67;;;;;;;16.69;62.43;101159.97;5011797;28;20029;-74
2022/12/20 05:28:27;;;;;;;7.60;4.18;;;;;;;15.94;64.39;101156.41;5011677;28;20030;-74
2022/12/20 05:30:52;;;;;;;7.10;3.90;;;;;;;16.52;63.35;101142.16;5012175;28;20411;-74
2022/12/20 05:33:18;;;;;;;7.18;4.07;;;;;;;15.98;65.18;101146.69;5013599;28;20494;-76
2022/12/20 05:35:43;;;;;;;7.07;3.88;;;;;;;15.91;65.49;101142.53;5013742;28;20092;-74
2022/12/20 05:38:08;;;;;;;6.07;4.32;;;;;;;16.07;64.63;101142.47;5015942;28;20041;-75
2022/12/20 05:40:34;;;;;;;6.45;4.13;;;;;;;16.12;64.21;101139.81;5015661;28;20041;-75
2022/12/20 05:42:59;;;;;;;7.40;5.05;;;;;;;16.29;64.38;101143.28;5014342;28;20068;-75
2022/12/20 05:45:25;;;;;;;5.45;4.28;;;;;;;16.10;65.06;101146.56;5014098;28;20116;-73
2022/12/20 05:47:50;;;;;;;6.43;3.97;;;;;;;16.39;63.99;101145.28;4996351;28;20049;-73
2022/12/20 05:50:16;;;;;;;4.97;4.03;;;;;;;16.64;62.65;101142.81;5012834;28;20073;-72
2022/12/20 05:52:41;;;;;;;7.18;4.18;;;;;;;15.64;65.92;101142.47;5014442;28;20848;-73
2022/12/20 05:55:07;;;;;;;4.78;3.83;;;;;;;15.81;66.15;101138.66;5012399;28;20393;-73
2022/12/20 05:57:33;;;;;;;8.07;5.10;;;;;;;15.96;65.83;101148.03;5013985;28;20084;-72
2022/12/20 05:59:58;;;;;;;7.63;4.38;;;;;;;15.42;68.14;101139.75;5014353;28;20116;-74
2022/12/20 06:02:23;;;;;;;7.32;3.67;;;;;;;16.28;64.99;101132.66;5012442;28;20028;-74
2022/12/20 06:04:49;;;;;;;9.25;4.00;;;;;;;15.74;67.93;101131.78;5015616;28;20036;-73
2022/12/20 06:07:14;;;;;;;9.95;5.03;;;;;;;16.43;65.68;101128.19;5014116;28;20177;-75
2022/12/20 06:09:39;;;;;;;8.30;5.25;;;;;;;15.57;69.66;101131.00;5013986;28;20069;-74
2022/12/20 06:12:05;;;;;;;7.03;4.57;;;;;;;15.72;69.98;101139.34;5012430;28;20051;-75
2022/12/20 06:14:30;;;;;;;6.38;4.20;;;;;;;16.12;67.06;101128.13;5010177;28;20103;-75
2022/12/20 06:16:56;;;;;;;7.70;4.68;;;;;;;16.33;66.94;101124.59;5014868;28;20096;-76
2022/12/20 06:19:21;;;;;;;6.68;4.82;;;;;;;16.61;66.39;101129.75;5015096;28;20111;-75
2022/12/20 06:21:47;;;;;;;10.02;5.05;;;;;;;16.35;66.63;101127.88;5014977;28;20038;-76
2022/12/20 06:24:12;;;;;;;6.25;4.50;;;;;;;16.86;65.58;101121.03;5014641;28;20034;-76
2022/12/20 06:26:37;;;;;;;6.82;4.70;;;;;;;16.67;65.48;101120.59;5015315;28;20045;-75
2022/12/20 06:29:06;;;;;;;11.82;4.93;;;;;;;16.51;66.76;101110.69;5015324;28;20442;-76
2022/12/20 06:31:32;;;;;;;7.60;5.55;;;;;;;16.00;68.04;101116.63;5012058;28;20049;-75
2022/12/20 06:33:57;;;;;;;11.48;5.20;;;;;;;16.35;66.69;101112.38;5012295;28;20092;-75
2022/12/20 06:36:23;;;;;;;8.32;4.90;;;;;;;16.42;66.86;101095.91;5014284;28;20037;-74
2022/12/20 06:38:48;;;;;;;9.95;4.30;;;;;;;16.38;66.55;101095.63;5014420;28;20057;-75
2022/12/20 06:41:13;;;;;;;9.60;5.13;;;;;;;16.74;66.02;101098.66;5013921;28;20387;-74
2022/12/20 06:43:39;;;;;;;5.45;4.88;;;;;;;15.98;67.96;101095.19;5014808;28;20489;-75
2022/12/20 06:46:05;;;;;;;10.75;5.35;;;;;;;16.00;68.11;101090.34;5013505;28;20112;-75
2022/12/20 06:48:30;;;;;;;7.07;4.68;;;;;;;15.84;69.55;101092.06;5012448;28;20034;-75
2022/12/20 06:50:56;;;;;;;9.10;5.22;;;;;;;15.91;69.08;101096.47;5013862;28;20030;-75
2022/12/20 06:53:21;;;;;;;8.40;5.30;;;;;;;15.64;70.63;101094.53;5013675;28;20022;-75
2022/12/20 06:55:49;;;;;;;6.22;5.07;;;;;;;15.84;69.56;101094.75;5014820;28;20010;-75
2022/12/20 06:58:15;;;;;;;7.68;4.95;;;;;;;16.67;66.99;101079.88;5014758;28;20056;-75
2022/12/20 07:00:40;;;;;;;8.50;5.50;;;;;;;16.74;66.76;101090.53;5014572;28;20034;-75
2022/12/20 07:03:05;;;;;;;12.30;6.28;;;;;;;16.11;68.52;101094.81;5014408;28;20121;-75
2022/12/20 07:05:31;;;;;;;8.95;5.30;;;;;;;16.57;67.52;101096.91;5010708;28;20045;-76
2022/12/20 07:07:57;;;;;;;12.00;5.63;;;;;;;16.09;68.73;101093.41;5015548;28;20033;-76
2022/12/20 07:10:22;;;;;;;7.68;5.50;;;;;;;15.65;69.85;101098.88;5014889;28;20123;-75
2022/12/20 07:12:47;;;;;;;7.38;5.03;;;;;;;15.90;70.06;101101.06;5013593;28;20060;-75
2022/12/20 07:15:13;;;;;;;8.90;6.25;;;;;;;16.01;69.09;101093.88;5012864;28;20033;-74
2022/12/20 07:17:38;;;;;;;9.95;5.90;;;;;;;15.83;69.70;101086.91;5014810;28;20034;-75
2022/12/20 07:20:07;;;;;;;12.57;5.68;;;;;;;16.65;66.87;101080.16;5014959;28;20084;-74
2022/12/20 07:22:33;;;;;;;9.43;5.90;;;;;;;16.62;66.60;101091.53;5010316;28;20037;-76
2022/12/20 07:24:59;;;;;;;8.95;5.75;;;;;;;17.03;64.57;101083.69;5013680;28;20185;-76
2022/12/20 07:27:24;;;;;;;8.52;5.22;;;;;;;16.89;64.78;101077.88;5014945;28;20427;-76
2022/12/20 07:29:50;;;;;;;14.77;6.22;;;;;;;16.54;65.84;101088.47;5011933;28;20052;-74
2022/12/20 07:32:15;;;;;;;9.35;5.05;;;;;;;17.10;63.81;101089.72;5013755;28;20033;-73
2022/12/20 07:34:41;;;;;;;9.13;5.40;;;;;;;16.68;64.73;101089.69;5014405;28;20025;-75
2022/12/20 07:37:07;;;;;;;17.15;5.82;;;;;;;16.37;65.59;101082.31;5014282;28;20033;-76
2022/12/20 07:39:33;;;;;;;7.70;5.22;;;;;;;16.33;65.21;101084.69;5014709;28;20076;-75
2022/12/20 07:41:58;;;;;;;8.70;5.88;;;;;;;16.40;65.06;101085.31;5013088;28;20498;-76
2022/12/20 07:44:24;;;;;;;9.70;5.45;;;;;;;16.56;64.94;101091.75;5014072;28;20132;-75
2022/12/20 07:46:49;;;;;;;8.23;5.35;;;;;;;16.64;64.89;101083.94;5014525;28;20042;-75
2022/12/20 07:49:14;;;;;;;7.07;4.65;;;;;;;17.04;63.51;101090.75;5014470;28;20042;-73
2022/12/20 07:51:50;;;;;;;8.00;5.43;;;;;;;16.85;63.57;101087.63;5014358;28;20034;-76
2022/12/20 07:54:20;;;;;;;7.78;4.90;;;;;;;16.62;63.40;101083.41;5014292;28;20150;-76
2022/12/20 07:56:49;;;;;;;9.90;5.15;;;;;;;16.85;63.28;101089.50;5014130;28;20038;-75
2022/12/20 07:59:20;;;;;;;8.57;5.15;;;;;;;16.66;63.39;101086.41;5014016;28;20044;-75
2022/12/20 08:01:46;;;;;;;8.55;5.35;;;;;;;16.50;63.94;101080.03;5014740;28;20512;-76
2022/12/20 08:04:17;;;;;;;6.50;4.97;;;;;;;16.55;64.62;101082.78;5013814;28;20445;-75
2022/12/20 08:06:42;;;;;;;9.75;4.93;;;;;;;16.44;64.40;101089.16;5013576;28;20038;-74
2022/12/20 08:09:13;;;;;;;12.98;4.47;;;;;;;16.44;64.45;101089.16;5012944;28;20503;-74
2022/12/20 08:11:42;;;;;;;7.03;4.78;;;;;;;16.91;62.42;101099.34;5028056;28;20071;-75
2022/12/20 08:14:08;;;;;;;11.80;5.00;;;;;;;16.46;63.93;101094.31;5013403;28;20437;-76
2022/12/20 08:16:34;;;;;;;7.53;4.50;;;;;;;16.75;63.18;101098.41;5013358;28;20041;-76
2022/12/20 08:19:00;;;;;;;13.90;4.32;;;;;;;15.93;65.36;101103.28;5013432;28;20049;-75
2022/12/20 08:21:25;;;;;;;5.53;4.20;;;;;;;16.76;63.76;101105.47;5011631;28;20087;-75
2022/12/20 08:23:51;;;;;;;9.52;4.45;;;;;;;16.26;64.39;101104.97;5012679;28;20044;-75
2022/12/20 08:26:16;;;;;;;7.43;4.55;;;;;;;17.15;61.85;101109.56;5013009;28;20406;-74
2022/12/20 08:28:41;;;;;;;8.00;4.55;;;;;;;17.42;60.40;101104.84;5013995;28;20466;-74
2022/12/20 08:31:08;;;;;;;10.23;4.00;;;;;;;16.69;62.89;101104.88;5013105;28;20530;-74
2022/12/20 08:33:35;;;;;;;10.80;4.63;;;;;;;17.33;61.20;101111.84;5013396;28;20088;-75
2022/12/20 08:36:02;;;;;;;6.88;4.30;;;;;;;16.79;63.56;101101.41;5013735;28;20457;-76
2022/12/20 08:38:29;;;;;;;10.48;4.57;;;;;;;16.94;63.24;101096.94;5013552;28;20053;-75
2022/12/20 08:41:00;;;;;;;8.43;4.00;;;;;;;17.15;61.80;101090.56;5013648;28;20649;-76
2022/12/20 08:43:25;;;;;;;6.25;3.88;;;;;;;17.79;59.70;101096.59;5013910;28;20042;-75
2022/12/20 08:45:53;;;;;;;6.47;3.38;;;;;;;17.14;62.14;101088.13;5012714;28;20461;-76
2022/12/20 08:48:19;;;;;;;8.65;3.58;;;;;;;16.80;63.29;101082.16;5013570;28;20375;-75
2022/12/20 08:50:44;;;;;;;10.07;4.32;;;;;;;16.93;63.36;101081.72;5013868;28;20045;-76
2022/12/20 08:53:09;;;;;;;9.10;4.20;;;;;;;17.25;61.85;101081.66;5013558;28;20544;-75
2022/12/20 08:55:35;;;;;;;4.25;3.50;;;;;;;17.44;61.10;101082.81;5013287;28;20049;-76
2022/12/20 08:58:01;;;;;;;5.90;4.13;;;;;;;17.25;62.03;101087.09;5012802;28;20042;-75
2022/12/20 09:00:26;;;;;;;5.25;3.65;;;;;;;16.71;63.75;101081.00;5012775;28;20045;-75
2022/12/20 09:02:53;;;;;;;5.47;3.78;;;;;;;17.49;60.86;101080.19;5013371;28;20037;-75
2022/12/20 09:05:19;;;;;;;6.00;4.13;;;;;;;17.25;61.15;101087.09;5012466;28;20112;-74
2022/12/20 09:07:45;;;;;;;7.97;4.18;;;;;;;16.63;64.18;101081.47;5011975;28;20077;-76
2022/12/20 09:10:11;;;;;;;6.05;4.03;;;;;;;17.11;63.15;101086.72;5012414;28;20037;-75
2022/12/20 09:12:37;;;;;;;9.68;4.22;;;;;;;16.73;64.12;101084.28;5013760;28;20034;-75
2022/12/20 09:15:04;;;;;;;12.55;4.80;;;;;;;17.34;61.94;101083.59;5012626;28;20057;-74
2022/12/20 09:17:32;;;;;;;10.68;3.85;;;;;;;16.93;62.41;101072.75;5011849;28;20469;-76
2022/12/20 09:19:58;;;;;;;4.15;3.42;;;;;;;16.39;64.34;101083.69;4995352;28;20049;-74
2022/12/20 09:22:23;;;;;;;10.75;4.20;;;;;;;17.15;62.04;101073.44;5012197;28;20034;-75
2022/12/20 09:24:48;;;;;;;8.68;3.85;;;;;;;17.07;62.42;101074.75;5009827;28;20065;-75
2022/12/20 09:27:14;;;;;;;11.10;4.25;;;;;;;16.74;63.77;101074.25;5013061;28;20044;-74
2022/12/20 09:29:39;;;;;;;5.03;3.78;;;;;;;16.96;62.75;101075.75;5013526;28;20049;-75
2022/12/20 09:32:05;;;;;;;7.60;3.53;;;;;;;16.20;65.19;101074.28;5014214;28;20505;-74
2022/12/20 09:34:31;;;;;;;15.30;3.90;;;;;;;16.37;65.42;101080.41;5012867;28;20378;-76
2022/12/20 09:36:56;;;;;;;11.77;4.18;;;;;;;16.48;64.03;101087.59;5012408;28;20693;-75
2022/12/20 09:39:21;;;;;;;4.90;3.00;;;;;;;15.60;67.68;101088.00;4994679;28;20545;-75
2022/12/20 09:41:47;;;;;;;5.25;3.15;;;;;;;16.24;65.08;101082.72;5012623;28;20038;-73
2022/12/20 09:44:42;;;;;;;5.50;3.00;;;;;;;16.02;66.61;101087.38;5012382;28;20079;-73
2022/12/20 09:47:16;;;;;;;6.78;3.40;;;;;;;15.77;67.59;101087.91;4996454;28;20041;-74
2022/12/20 09:49:46;;;;;;;5.50;3.38;;;;;;;15.94;67.40;101087.84;5011440;28;20054;-73
2022/12/20 09:52:11;;;;;;;12.23;3.47;;;;;;;15.80;68.17;101090.13;5012745;28;20034;-73
2022/12/20 09:54:55;;;;;;;5.18;3.35;;;;;;;16.59;65.65;101083.91;5012385;28;20038;-72
2022/12/20 09:57:41;;;;;;;7.13;3.70;;;;;;;16.02;68.05;101080.06;5005098;28;20391;-71
2022/12/20 10:00:13;;;;;;;9.40;3.80;;;;;;;16.36;66.78;101088.81;5012074;28;20461;-73
2022/12/20 10:02:39;;;;;;;7.63;3.45;;;;;;;15.98;67.79;101076.22;5010875;28;20092;-72
2022/12/20 10:05:26;;;;;;;7.82;3.30;;;;;;;16.37;66.40;101069.56;5011424;28;20033;-73
2022/12/20 10:07:54;;;;;;;8.02;4.05;;;;;;;15.77;68.93;101074.34;4936702;29;20050;-72
2022/12/20 10:10:22;;;;;;;6.00;3.20;;;;;;;16.03;68.84;101068.16;4950210;28;20129;-74
2022/12/20 10:13:02;;;;;;;7.88;3.80;;;;;;;16.29;66.90;101064.63;4950352;29;20043;-73
2022/12/20 10:15:40;;;;;;;10.48;3.50;;;;;;;16.74;66.09;101068.81;4948896;28;20035;-74
2022/12/20 10:18:05;;;;;;;9.18;3.30;;;;;;;16.85;65.20;101070.50;4948274;29;20039;-73
2022/12/20 10:20:42;;;;;;;13.18;4.63;;;;;;;16.21;67.70;101059.66;4952330;28;20034;-72
2022/12/20 10:23:24;;;;;;;7.72;3.65;;;;;;;16.25;67.55;101074.34;4952283;29;20090;-74
2022/12/20 10:25:55;;;;;;;6.93;3.83;;;;;;;16.67;66.74;101059.00;4953609;28;20047;-73
2022/12/20 10:28:25;;;;;;;8.90;5.85;;;;;;;16.11;67.89;101067.69;4953184;28;20138;-73
2022/12/20 10:30:51;;;;;;;8.32;4.13;;;;;;;15.95;69.43;101062.34;4952839;28;20035;-74
2022/12/20 10:33:21;;;;;;;5.13;3.83;;;;;;;16.32;68.33;101069.53;4952355;28;20035;-73
2022/12/20 10:35:49;;;;;;;;;;;;;;;16.06;69.95;101067.63;4950826;28;20042;-72
2022/12/20 10:38:17;;;;;;;4.70;3.65;;;;;;;16.45;68.91;101065.56;4951909;28;20334;-72
2022/12/20 10:40:58;;;;;;;8.00;3.95;;;;;;;16.58;67.66;101065.16;4952970;28;20046;-73
2022/12/20 10:43:23;;;;;;;;;;;;;;;16.47;68.63;101066.94;4950367;29;20054;-74
2022/12/20 10:45:57;;;;;;;7.72;3.80;;;;;;;16.22;69.57;101058.56;5003615;28;20000;-73
2022/12/20 10:48:31;;;;;;;5.32;2.97;;;;;;;15.73;71.63;101057.78;5013892;28;20049;-72
2022/12/20 10:51:09;;;;;;;8.85;3.20;;;;;;;16.21;70.03;101048.00;5014188;28;20045;-72
2022/12/20 10:56:59;;;;;;;6.55;3.35;;;;;;;16.47;68.80;101052.56;5014016;28;20575;-72
2022/12/20 10:59:33;;;;;;;7.35;3.47;;;;;;;15.71;72.40;101046.38;5014442;28;20034;-73
2022/12/20 11:01:59;;;;;;;8.32;3.60;;;;;;;16.13;69.93;101054.69;5014864;28;20033;-72
2022/12/20 11:04:34;;;;;;;5.50;3.40;;;;;;;15.75;71.44;101054.81;5013730;28;20092;-73
2022/12/20 11:07:02;;;;;;;9.88;4.00;;;;;;;16.82;67.76;101033.88;5013676;28;20517;-73
2022/12/20 11:09:32;;;;;;;4.05;3.15;;;;;;;15.87;71.44;101033.81;5013680;28;20504;-73
2022/12/20 11:12:04;;;;;;;4.72;3.55;;;;;;;16.60;69.03;101033.16;5013916;28;20049;-72
2022/12/20 11:14:32;;;;;;;5.82;4.18;;;;;;;16.50;68.98;101025.78;5006497;28;20056;-72
2022/12/20 11:17:02;;;;;;;7.40;3.35;;;;;;;15.88;70.41;101018.38;5013755;28;20481;-73
2022/12/20 11:19:43;;;;;;;7.68;4.20;;;;;;;15.68;72.43;101029.84;5013291;28;20026;-74
2022/12/20 11:22:31;;;;;;;10.32;3.78;;;;;;;16.65;68.64;101016.91;5010396;28;20049;-74
2022/12/20 11:25:21;;;;;;;6.00;3.78;;;;;;;16.77;67.98;101017.53;5012016;28;20585;-74
2022/12/20 11:28:13;;;;;;;6.63;3.50;;;;;;;16.30;69.69;101011.19;5010661;28;20042;-73
2022/12/20 11:31:03;;;;;;;7.72;3.70;;;;;;;16.90;67.81;101013.56;5011727;28;20088;-72
2022/12/20 11:34:02;;;;;;;6.60;3.70;;;;;;;16.67;67.57;101010.16;5012905;28;20464;-74
2022/12/20 11:36:53;;;;;;;8.30;3.80;;;;;;;17.11;67.11;101018.84;5020898;28;20045;-74
2022/12/20 11:39:19;;;;;;;7.18;4.20;;;;;;;16.36;68.80;101027.25;5010025;28;20098;-74
2022/12/20 11:41:55;;;;;;;6.05;4.30;;;;;;;16.57;69.21;101029.06;5012695;28;20054;-73
2022/12/20 11:44:48;;;;;;;10.75;4.90;;;;;;;16.12;70.00;101022.41;5013057;28;20038;-74